Terminal Aerodrome Forecast
Issued by NWS

Home | Current Version | Previous Version | Text Only | Print | Product List | Glossary On
Versions: 1 2 3 4 5 6 7 8 9 10 11 12 13 14 15 16 17 18 19
000
FTUS41 KBGM 172339
TAFELM
TAF
KELM 172339Z 1800/1824 18005KT P6SM OVC100
     FM180400 19006KT P6SM -SHRA OVC035
     FM180600 18006KT 5SM -SHRA BR OVC025
     FM180900 19006KT 3SM -SHRA BR OVC015
     FM181600 22010KT P6SM -SHRA OVC025
     FM181800 24010KT P6SM BKN040 OVC080=

USA.gov is the U.S. government's official web portal to all federal, state and local government web resources and services.